Time;durP1;ratioP1;P1;durP2;ratioP2;P2;SDS_P1;SDS_P2;PMS_P1;PMS_P2;Temp;Humidity;BMP_temperature;BMP_pressure;BME280_temperature;BME280_humidity;BME280_pressure;Samples;Min_cycle;Max_cycle;Signal;HPM_P1;HPM_P2
2023/02/05 00:01:55;;;;;;;3.47;2.40;;;7.90;99.90;;;;;;5019912;28;20222;-47
2023/02/05 00:04:25;;;;;;;3.10;2.72;;;7.90;99.90;;;;;;5017992;28;20588;-47
2023/02/05 00:06:54;;;;;;;2.60;2.03;;;7.90;99.90;;;;;;5021887;28;20318;-48
2023/02/05 00:09:22;;;;;;;3.53;3.07;;;7.90;99.90;;;;;;5011944;28;20212;-47
2023/02/05 00:11:51;;;;;;;3.92;3.08;;;7.90;99.90;;;;;;5024340;28;20478;-47
2023/02/05 00:14:19;;;;;;;3.22;2.80;;;7.90;99.90;;;;;;5027298;28;20208;-47
2023/02/05 00:16:48;;;;;;;2.57;2.20;;;7.90;99.90;;;;;;5022084;28;20224;-46
2023/02/05 00:19:17;;;;;;;2.17;1.95;;;7.90;99.90;;;;;;5025043;28;20477;-47
2023/02/05 00:21:47;;;;;;;3.50;2.23;;;7.90;99.90;;;;;;5027148;28;20217;-47
2023/02/05 00:24:17;;;;;;;3.78;2.30;;;7.90;99.90;;;;;;5026730;28;20458;-47
2023/02/05 00:26:46;;;;;;;3.57;2.10;;;7.90;99.90;;;;;;5020110;28;20625;-49
2023/02/05 00:29:14;;;;;;;2.42;2.22;;;7.90;99.90;;;;;;5022975;28;20478;-48
2023/02/05 00:31:43;;;;;;;3.80;2.72;;;7.90;99.90;;;;;;5020296;28;20236;-48
2023/02/05 00:34:12;;;;;;;4.05;2.67;;;7.90;99.90;;;;;;5022085;28;20589;-51
2023/02/05 00:36:41;;;;;;;2.40;2.10;;;7.90;99.90;;;;;;5024194;28;20346;-47
2023/02/05 00:39:13;;;;;;;4.00;2.30;;;7.90;99.90;;;;;;5025199;28;20197;-47
2023/02/05 00:41:41;;;;;;;2.50;2.08;;;7.90;99.90;;;;;;5016996;28;20552;-47
2023/02/05 00:44:10;;;;;;;4.20;2.63;;;7.90;99.90;;;;;;5024126;28;20205;-48
2023/02/05 00:46:38;;;;;;;3.10;2.20;;;7.90;99.90;;;;;;5023863;28;20689;-47
2023/02/05 00:49:07;;;;;;;3.10;2.30;;;7.90;99.90;;;;;;5020900;28;20478;-47
2023/02/05 00:51:37;;;;;;;3.08;2.47;;;7.90;99.90;;;;;;5016476;28;20495;-48
2023/02/05 00:54:05;;;;;;;3.70;2.67;;;7.90;99.90;;;;;;5022120;28;20201;-48
2023/02/05 00:56:35;;;;;;;2.40;2.20;;;7.90;99.90;;;;;;5023446;28;20484;-48
2023/02/05 00:59:04;;;;;;;2.30;2.10;;;7.90;99.90;;;;;;5023229;28;22157;-47
2023/02/05 01:01:33;;;;;;;4.07;2.23;;;7.90;99.90;;;;;;5015126;28;20481;-48
2023/02/05 01:04:01;;;;;;;3.33;2.47;;;7.90;99.90;;;;;;5022328;28;20465;-49
2023/02/05 01:06:30;;;;;;;1.95;1.75;;;7.90;99.90;;;;;;5023465;28;20442;-49
2023/02/05 01:08:59;;;;;;;3.38;2.17;;;7.90;99.90;;;;;;5026031;28;20284;-48
2023/02/05 01:11:28;;;;;;;2.63;2.20;;;7.90;99.90;;;;;;5019804;28;20224;-47
2023/02/05 01:13:58;;;;;;;2.47;2.10;;;7.90;99.90;;;;;;5017659;28;20195;-47
2023/02/05 01:16:26;;;;;;;4.43;3.35;;;7.90;99.90;;;;;;5019996;28;20458;-47
2023/02/05 01:18:55;;;;;;;2.42;2.10;;;7.90;99.90;;;;;;5018797;28;20202;-46
2023/02/05 01:21:24;;;;;;;4.00;2.60;;;7.90;99.90;;;;;;5024587;28;20598;-47
2023/02/05 01:23:54;;;;;;;4.55;3.80;;;7.90;99.90;;;;;;5025705;28;20800;-47
2023/02/05 01:26:22;;;;;;;3.72;2.50;;;7.90;99.90;;;;;;5022745;28;20224;-48
2023/02/05 01:28:51;;;;;;;2.70;2.10;;;7.90;99.90;;;;;;5025445;28;20200;-47
2023/02/05 01:31:21;;;;;;;2.90;2.40;;;7.90;99.90;;;;;;5017160;28;20244;-47
2023/02/05 01:33:49;;;;;;;3.40;2.25;;;7.90;99.90;;;;;;5022708;28;20473;-47
2023/02/05 01:36:18;;;;;;;3.50;2.87;;;7.90;99.90;;;;;;5023465;28;20207;-46
2023/02/05 01:38:47;;;;;;;3.53;2.78;;;7.90;99.90;;;;;;5024727;28;20437;-48
2023/02/05 01:41:16;;;;;;;4.50;2.60;;;7.90;99.90;;;;;;5022085;28;20777;-48
2023/02/05 01:44:05;;;;;;;3.75;2.70;;;7.90;99.90;;;;;;5025657;28;20669;-47
2023/02/05 01:46:36;;;;;;;3.63;2.63;;;7.90;99.90;;;;;;5023303;28;20299;-49
2023/02/05 01:49:07;;;;;;;3.65;2.40;;;7.90;99.90;;;;;;5024028;28;20278;-48
2023/02/05 01:51:37;;;;;;;4.40;2.10;;;7.90;99.90;;;;;;5023302;28;20645;-47
2023/02/05 01:54:07;;;;;;;2.55;2.28;;;7.90;99.90;;;;;;5020609;28;20199;-47
2023/02/05 01:56:39;;;;;;;5.22;2.80;;;7.90;99.90;;;;;;5026649;28;20223;-46
2023/02/05 01:59:13;;;;;;;4.07;2.30;;;7.90;99.90;;;;;;5019357;28;20554;-46
2023/02/05 02:01:44;;;;;;;3.17;2.25;;;7.90;99.90;;;;;;5047510;28;20564;-49
2023/02/05 02:04:21;;;;;;;2.75;2.55;;;7.90;99.90;;;;;;5050177;22;20304;-49
2023/02/05 02:06:54;;;;;;;2.30;2.10;;;7.90;99.90;;;;;;5023736;28;20255;-49
2023/02/05 02:09:23;;;;;;;3.65;2.17;;;7.90;99.90;;;;;;5022135;28;20218;-49
2023/02/05 02:11:51;;;;;;;2.63;2.33;;;7.90;99.90;;;;;;5023976;28;20235;-48
2023/02/05 02:14:21;;;;;;;2.95;2.05;;;7.90;99.90;;;;;;5017079;28;20271;-46
2023/02/05 02:16:53;;;;;;;2.30;1.65;;;7.90;99.90;;;;;;5024234;28;20248;-48
2023/02/05 02:19:31;;;;;;;5.65;2.50;;;7.90;99.90;;;;;;5018563;28;20196;-48
2023/02/05 02:22:27;;;;;;;2.67;2.15;;;7.90;99.90;;;;;;5015046;28;20239;-47
2023/02/05 02:25:14;;;;;;;2.67;2.42;;;7.90;99.90;;;;;;5003891;28;20350;-46
2023/02/05 02:27:49;;;;;;;2.87;2.67;;;7.90;99.90;;;;;;5019242;28;20315;-48
2023/02/05 02:30:26;;;;;;;4.50;2.60;;;7.90;99.90;;;;;;5019663;28;20521;-49
2023/02/05 02:33:07;;;;;;;3.28;2.33;;;7.90;99.90;;;;;;5003083;28;20505;-47
2023/02/05 02:35:44;;;;;;;1.80;1.65;;;7.90;99.90;;;;;;5021349;28;20222;-48
2023/02/05 02:38:20;;;;;;;3.00;1.92;;;7.90;99.90;;;;;;5006115;28;20219;-49
2023/02/05 02:40:54;;;;;;;3.45;2.70;;;7.90;99.90;;;;;;5008596;28;20212;-48
2023/02/05 02:43:32;;;;;;;3.10;2.88;;;7.90;99.90;;;;;;5013374;28;20226;-49
2023/02/05 02:46:05;;;;;;;2.75;2.00;;;7.90;99.90;;;;;;5022486;28;20704;-47
2023/02/05 02:48:37;;;;;;;3.10;2.50;;;7.90;99.90;;;;;;4998775;28;20197;-47
2023/02/05 02:51:09;;;;;;;2.53;2.33;;;7.90;99.90;;;;;;4988582;28;20319;-46
2023/02/05 02:53:42;;;;;;;2.20;2.00;;;7.90;99.90;;;;;;5021719;28;20197;-47
2023/02/05 02:56:13;;;;;;;2.20;2.00;;;7.90;99.90;;;;;;5005714;28;20757;-47
2023/02/05 02:58:47;;;;;;;2.45;1.83;;;7.90;99.90;;;;;;5003099;28;20455;-50
2023/02/05 03:01:22;;;;;;;2.42;2.22;;;7.90;99.90;;;;;;5007839;28;20211;-47
2023/02/05 03:03:54;;;;;;;3.08;2.00;;;7.90;99.90;;;;;;5022788;28;20188;-47
2023/02/05 03:06:23;;;;;;;3.20;2.22;;;7.90;99.90;;;;;;5007442;28;20392;-48
2023/02/05 03:08:56;;;;;;;2.63;2.35;;;7.90;99.90;;;;;;5025594;28;20200;-47
2023/02/05 03:11:26;;;;;;;3.42;2.20;;;7.90;99.90;;;;;;5006324;28;20725;-45
2023/02/05 03:13:57;;;;;;;2.55;2.10;;;7.90;99.90;;;;;;5022790;28;20204;-46
2023/02/05 03:16:31;;;;;;;3.50;2.75;;;7.90;99.90;;;;;;5006089;28;20306;-46
2023/02/05 03:19:01;;;;;;;3.20;2.90;;;7.90;99.90;;;;;;5006910;28;20244;-46
2023/02/05 03:21:34;;;;;;;3.15;2.45;;;7.80;99.90;;;;;;5010836;28;20299;-48
2023/02/05 03:24:03;;;;;;;3.25;2.38;;;7.90;99.90;;;;;;5005871;28;20201;-48
2023/02/05 03:26:33;;;;;;;3.60;2.20;;;7.80;99.90;;;;;;5005656;28;20272;-47
2023/02/05 03:29:17;;;;;;;3.08;2.10;;;7.90;99.90;;;;;;5008676;28;20960;-47
2023/02/05 03:32:01;;;;;;;3.10;2.40;;;7.80;99.90;;;;;;5007874;28;20216;-48
2023/02/05 03:34:41;;;;;;;2.70;2.30;;;7.80;99.90;;;;;;5008218;28;20955;-48
2023/02/05 03:37:18;;;;;;;3.63;2.20;;;7.80;99.90;;;;;;5006315;28;20224;-48
2023/02/05 03:40:01;;;;;;;3.03;2.22;;;7.80;99.90;;;;;;5020194;28;20466;-48
2023/02/05 03:42:41;;;;;;;3.37;2.80;;;7.90;99.90;;;;;;5017815;28;20254;-48
2023/02/05 03:45:26;;;;;;;2.63;2.40;;;7.90;99.90;;;;;;5000980;28;20467;-48
2023/02/05 03:48:17;;;;;;;3.15;2.78;;;7.80;99.90;;;;;;5008237;28;20259;-48
2023/02/05 03:50:53;;;;;;;2.80;2.50;;;7.90;99.90;;;;;;5016563;28;20273;-47
2023/02/05 03:53:28;;;;;;;3.10;2.40;;;7.90;99.90;;;;;;5002443;28;20262;-49
2023/02/05 03:56:04;;;;;;;3.80;2.27;;;7.80;99.90;;;;;;5006556;28;20467;-49
2023/02/05 03:58:38;;;;;;;4.00;2.47;;;7.90;99.90;;;;;;5016502;28;20818;-47
2023/02/05 04:01:11;;;;;;;3.47;2.70;;;7.90;99.90;;;;;;5014907;28;20477;-46
2023/02/05 04:03:41;;;;;;;3.80;2.78;;;7.80;99.90;;;;;;5007942;28;20277;-46
2023/02/05 04:06:11;;;;;;;3.27;2.97;;;7.90;99.90;;;;;;5011726;28;20488;-47
2023/02/05 04:08:42;;;;;;;4.13;2.60;;;7.90;99.90;;;;;;5005054;28;20497;-47
2023/02/05 04:11:11;;;;;;;3.20;2.50;;;7.90;99.90;;;;;;4998479;28;20316;-48
2023/02/05 04:13:41;;;;;;;4.10;2.70;;;7.90;99.90;;;;;;5020143;28;20474;-47
2023/02/05 04:16:13;;;;;;;4.60;3.23;;;7.80;99.90;;;;;;5012000;28;20318;-47
2023/02/05 04:18:42;;;;;;;3.23;2.87;;;7.90;99.90;;;;;;5005879;28;20867;-47
2023/02/05 04:21:11;;;;;;;4.60;3.00;;;7.80;99.90;;;;;;5003983;28;20464;-46
2023/02/05 04:23:42;;;;;;;4.00;2.60;;;7.80;99.90;;;;;;5004793;28;20465;-46
2023/02/05 04:26:11;;;;;;;4.80;3.22;;;7.90;99.90;;;;;;5016974;28;20513;-47
2023/02/05 04:28:47;;;;;;;3.97;2.97;;;7.80;99.90;;;;;;5016173;28;20196;-48
2023/02/05 04:31:17;;;;;;;4.20;3.00;;;7.80;99.90;;;;;;5019560;28;20464;-46
2023/02/05 04:33:46;;;;;;;5.47;3.40;;;7.80;99.90;;;;;;5014701;28;20824;-47
2023/02/05 04:36:17;;;;;;;3.70;3.30;;;7.80;99.90;;;;;;5012763;28;20307;-47
2023/02/05 04:38:46;;;;;;;5.25;3.70;;;7.80;99.90;;;;;;5006560;28;20470;-47
2023/02/05 04:41:15;;;;;;;4.37;3.80;;;7.80;99.90;;;;;;5010715;28;20271;-47
2023/02/05 04:43:43;;;;;;;4.83;3.40;;;7.80;99.90;;;;;;5013354;28;20440;-47
2023/02/05 04:46:12;;;;;;;3.83;2.95;;;7.80;99.90;;;;;;5005127;28;20483;-47
2023/02/05 04:48:42;;;;;;;3.93;3.07;;;7.80;99.90;;;;;;5019098;28;20200;-47
2023/02/05 04:51:13;;;;;;;5.20;3.60;;;7.80;99.90;;;;;;5003980;28;20866;-47
2023/02/05 04:53:41;;;;;;;3.80;3.08;;;7.80;99.90;;;;;;5005079;28;20457;-49
2023/02/05 04:56:12;;;;;;;5.22;3.80;;;7.80;99.90;;;;;;5014186;28;20224;-47
2023/02/05 04:58:40;;;;;;;5.68;4.28;;;7.80;99.90;;;;;;5018865;28;20205;-49
2023/02/05 05:01:12;;;;;;;6.97;4.50;;;7.80;99.90;;;;;;5006430;28;20212;-47
2023/02/05 05:03:43;;;;;;;4.25;3.42;;;7.80;99.90;;;;;;4999631;28;20487;-47
2023/02/05 05:06:12;;;;;;;4.82;3.65;;;7.80;99.90;;;;;;5003212;28;20664;-47
2023/02/05 05:08:41;;;;;;;4.57;4.07;;;7.80;99.90;;;;;;5010739;28;20665;-48
2023/02/05 05:11:12;;;;;;;5.20;4.03;;;7.80;99.90;;;;;;5001750;28;20848;-47
2023/02/05 05:13:40;;;;;;;6.50;4.10;;;7.80;99.90;;;;;;5001321;28;20816;-48
2023/02/05 05:16:10;;;;;;;6.25;3.67;;;7.80;99.90;;;;;;5005832;28;20250;-47
2023/02/05 05:18:40;;;;;;;4.90;4.00;;;7.80;99.90;;;;;;5015053;28;20193;-47
2023/02/05 05:21:10;;;;;;;6.10;4.20;;;7.80;99.90;;;;;;5006107;28;20224;-46
2023/02/05 05:23:39;;;;;;;5.30;3.38;;;7.80;99.90;;;;;;5018493;28;20452;-46
2023/02/05 05:26:09;;;;;;;6.85;5.13;;;7.80;99.90;;;;;;4994029;28;20248;-46
2023/02/05 05:28:38;;;;;;;9.60;4.50;;;7.80;99.90;;;;;;5013513;28;20197;-46
2023/02/05 05:31:08;;;;;;;6.43;3.73;;;7.80;99.90;;;;;;5020762;28;20467;-48
2023/02/05 05:33:38;;;;;;;13.93;5.45;;;7.80;99.90;;;;;;5012081;28;20456;-48
2023/02/05 05:36:09;;;;;;;5.33;4.10;;;7.80;99.90;;;;;;4986114;28;20230;-47
2023/02/05 05:38:38;;;;;;;5.93;4.60;;;7.80;99.90;;;;;;5001750;28;20463;-46
2023/02/05 05:43:54;;;;;;;8.20;5.13;;;7.80;99.90;;;;;;5011598;28;20258;-47
2023/02/05 05:46:25;;;;;;;6.20;4.87;;;7.80;99.90;;;;;;5005852;28;20199;-47
2023/02/05 05:48:55;;;;;;;6.43;5.07;;;7.80;99.90;;;;;;5014310;28;20459;-49
2023/02/05 05:51:27;;;;;;;10.50;5.23;;;7.80;99.90;;;;;;5003565;28;20216;-48
2023/02/05 05:53:57;;;;;;;7.03;5.00;;;7.80;99.90;;;;;;5006056;28;20929;-47
2023/02/05 05:56:29;;;;;;;8.75;6.28;;;7.80;99.90;;;;;;5009926;28;20299;-47
2023/02/05 05:58:57;;;;;;;7.17;5.40;;;7.80;99.90;;;;;;5005293;28;20231;-46
2023/02/05 06:01:26;;;;;;;7.90;5.53;;;7.80;99.90;;;;;;5023033;28;20446;-46
2023/02/05 06:03:55;;;;;;;7.57;4.78;;;7.80;99.90;;;;;;5014935;28;20666;-49
2023/02/05 06:06:26;;;;;;;5.83;4.63;;;7.80;99.90;;;;;;5007163;28;20220;-48
2023/02/05 06:08:54;;;;;;;6.87;5.17;;;7.80;99.90;;;;;;5021558;28;20453;-48
2023/02/05 06:11:23;;;;;;;7.00;4.70;;;7.80;99.90;;;;;;5009048;28;20471;-47
2023/02/05 06:13:51;;;;;;;7.07;4.47;;;7.80;99.90;;;;;;5024311;28;20515;-48
2023/02/05 06:16:20;;;;;;;7.53;4.55;;;7.80;99.90;;;;;;5007320;28;20471;-48
2023/02/05 06:18:49;;;;;;;8.05;5.13;;;7.80;99.90;;;;;;5007500;28;20228;-48
2023/02/05 06:21:17;;;;;;;8.15;5.10;;;7.80;99.90;;;;;;5009834;28;20236;-46
2023/02/05 06:23:47;;;;;;;7.85;4.78;;;7.80;99.90;;;;;;5009012;28;20533;-48
2023/02/05 06:26:16;;;;;;;6.00;4.80;;;7.80;99.90;;;;;;5001534;28;20242;-47
2023/02/05 06:28:45;;;;;;;9.40;5.90;;;7.80;99.90;;;;;;5018428;28;20457;-46
2023/02/05 06:31:16;;;;;;;7.30;5.53;;;7.80;99.90;;;;;;5016656;28;20224;-48
2023/02/05 06:33:44;;;;;;;8.05;5.63;;;7.80;99.90;;;;;;5023687;28;20518;-48
2023/02/05 06:36:13;;;;;;;9.65;5.85;;;7.80;99.90;;;;;;5015834;28;20236;-47
2023/02/05 06:38:41;;;;;;;7.78;5.50;;;7.80;99.90;;;;;;5008612;28;20211;-46
2023/02/05 06:41:11;;;;;;;7.93;5.90;;;7.80;99.90;;;;;;5009328;28;20220;-48
2023/02/05 06:43:40;;;;;;;8.18;4.88;;;7.80;99.90;;;;;;5015801;28;20193;-48
2023/02/05 06:46:08;;;;;;;5.20;4.68;;;7.80;99.90;;;;;;5005253;28;20228;-47
2023/02/05 06:48:37;;;;;;;8.30;5.67;;;7.80;99.90;;;;;;4998903;28;20227;-47
2023/02/05 06:51:06;;;;;;;7.18;5.45;;;7.80;99.90;;;;;;5006245;28;20538;-46
2023/02/05 06:53:36;;;;;;;6.40;5.68;;;7.80;99.90;;;;;;5007973;28;20662;-46
2023/02/05 06:56:06;;;;;;;10.18;6.32;;;7.80;99.90;;;;;;5006671;28;20704;-45
2023/02/05 06:58:36;;;;;;;8.97;5.60;;;7.80;99.90;;;;;;5007970;28;20689;-48
2023/02/05 07:01:05;;;;;;;9.15;5.80;;;7.80;99.90;;;;;;5007338;28;20474;-46
2023/02/05 07:03:33;;;;;;;9.40;5.72;;;7.80;99.90;;;;;;5004960;28;20707;-46
2023/02/05 07:06:03;;;;;;;8.00;5.93;;;7.80;99.90;;;;;;5006874;28;20724;-46
2023/02/05 07:08:32;;;;;;;9.00;5.63;;;7.70;99.90;;;;;;5020206;28;20677;-46
2023/02/05 07:11:01;;;;;;;9.23;5.70;;;7.80;99.90;;;;;;5007417;28;20220;-48
2023/02/05 07:13:30;;;;;;;8.38;5.80;;;7.80;99.90;;;;;;5008950;28;20655;-47
2023/02/05 07:16:03;;;;;;;7.03;5.63;;;7.80;99.90;;;;;;5015968;28;20231;-47
2023/02/05 07:18:32;;;;;;;8.88;5.75;;;7.80;99.90;;;;;;5009223;28;20200;-47
2023/02/05 07:21:05;;;;;;;8.27;6.70;;;7.80;99.90;;;;;;5008357;28;20229;-47
2023/02/05 07:23:33;;;;;;;8.02;5.72;;;7.80;99.90;;;;;;5004773;28;20208;-46
2023/02/05 07:26:06;;;;;;;7.70;6.30;;;7.80;99.90;;;;;;5008981;28;20204;-45
2023/02/05 07:28:35;;;;;;;7.50;5.78;;;7.80;99.90;;;;;;5002999;28;20232;-45
2023/02/05 07:31:06;;;;;;;7.43;6.03;;;7.80;99.90;;;;;;4999334;28;20315;-47
2023/02/05 07:33:36;;;;;;;8.00;6.55;;;7.80;99.90;;;;;;5000214;28;20307;-47
2023/02/05 07:36:06;;;;;;;8.13;5.85;;;7.80;99.90;;;;;;5009149;28;20209;-47
2023/02/05 07:38:36;;;;;;;7.32;6.25;;;7.80;99.90;;;;;;5008712;28;20607;-48
2023/02/05 07:41:05;;;;;;;7.10;6.40;;;7.70;99.90;;;;;;5006601;28;20259;-48
2023/02/05 07:43:34;;;;;;;9.52;6.05;;;7.70;99.90;;;;;;5008695;28;20193;-47
2023/02/05 07:46:06;;;;;;;10.45;7.45;;;7.70;99.90;;;;;;5006211;28;20677;-46
2023/02/05 07:48:35;;;;;;;8.02;6.22;;;7.70;99.90;;;;;;5015149;28;20960;-46
2023/02/05 07:51:04;;;;;;;8.97;6.20;;;7.70;99.90;;;;;;5008738;28;20274;-46
2023/02/05 07:53:32;;;;;;;7.18;5.70;;;7.70;99.90;;;;;;4999839;28;20518;-45
2023/02/05 07:56:03;;;;;;;8.85;6.00;;;7.70;99.90;;;;;;4998903;28;20213;-46
2023/02/05 07:58:32;;;;;;;8.90;6.63;;;7.70;99.90;;;;;;5021069;28;20208;-46
2023/02/05 08:01:01;;;;;;;8.00;5.78;;;7.70;99.90;;;;;;5007561;28;20260;-46
2023/02/05 08:03:32;;;;;;;8.80;6.60;;;7.70;99.90;;;;;;5011903;28;20238;-47
2023/02/05 08:06:05;;;;;;;9.05;5.60;;;7.80;99.90;;;;;;5008423;28;20224;-46
2023/02/05 08:08:33;;;;;;;8.45;6.40;;;7.70;99.90;;;;;;5023610;28;20287;-45
2023/02/05 08:11:06;;;;;;;8.85;6.70;;;7.70;99.90;;;;;;5000411;28;20230;-47
2023/02/05 08:13:35;;;;;;;9.35;6.88;;;7.70;99.90;;;;;;5000758;28;20224;-47
2023/02/05 08:16:05;;;;;;;7.55;6.10;;;7.70;99.90;;;;;;5003799;28;20282;-46
2023/02/05 08:18:35;;;;;;;9.40;6.60;;;7.70;99.90;;;;;;5006084;28;20236;-45
2023/02/05 08:21:04;;;;;;;8.35;6.13;;;7.70;99.90;;;;;;5007415;28;20478;-46
2023/02/05 08:23:32;;;;;;;8.70;6.50;;;7.70;99.90;;;;;;5023392;28;20314;-47
2023/02/05 08:26:01;;;;;;;7.72;6.25;;;7.70;99.90;;;;;;5005770;28;20208;-46
2023/02/05 08:28:29;;;;;;;9.50;7.38;;;7.70;99.90;;;;;;5006939;28;20195;-48
2023/02/05 08:30:58;;;;;;;8.90;5.90;;;7.70;99.90;;;;;;5007239;28;20621;-46
2023/02/05 08:33:26;;;;;;;8.48;6.40;;;7.70;99.90;;;;;;5005433;28;20208;-46
2023/02/05 08:35:58;;;;;;;8.70;6.10;;;7.70;99.90;;;;;;5014677;28;20673;-47
2023/02/05 08:38:26;;;;;;;10.45;6.15;;;7.70;99.90;;;;;;5020932;28;20737;-47
2023/02/05 08:40:56;;;;;;;8.00;6.35;;;7.70;99.90;;;;;;5015058;28;20634;-45
2023/02/05 08:43:25;;;;;;;8.10;6.30;;;7.70;99.90;;;;;;5021087;28;20220;-47
2023/02/05 08:45:53;;;;;;;10.60;7.07;;;7.70;99.90;;;;;;5007163;28;20250;-45
2023/02/05 08:48:21;;;;;;;8.50;6.68;;;7.70;99.90;;;;;;5004527;28;20240;-47
2023/02/05 08:50:50;;;;;;;9.88;7.40;;;7.70;99.90;;;;;;5008523;28;20276;-47
2023/02/05 08:53:21;;;;;;;6.50;5.80;;;7.70;99.90;;;;;;5016212;28;20685;-47
2023/02/05 08:55:55;;;;;;;8.52;6.70;;;7.70;99.90;;;;;;5008263;28;20258;-46
2023/02/05 08:58:23;;;;;;;6.40;5.40;;;7.70;99.90;;;;;;5004229;28;20670;-46
2023/02/05 09:01:01;;;;;;;7.25;5.55;;;7.70;99.90;;;;;;5007473;28;20216;-45
2023/02/05 09:03:30;;;;;;;7.13;6.10;;;7.70;99.90;;;;;;5001273;28;20231;-47
2023/02/05 09:05:59;;;;;;;5.97;5.07;;;7.70;99.90;;;;;;5018038;28;20220;-46
2023/02/05 09:08:29;;;;;;;7.05;6.07;;;7.70;99.90;;;;;;5006935;28;20452;-46
2023/02/05 09:10:58;;;;;;;7.05;5.20;;;7.70;99.90;;;;;;5022001;28;20589;-46
2023/02/05 09:13:27;;;;;;;6.65;5.10;;;7.70;99.90;;;;;;5006251;28;20760;-47
2023/02/05 09:15:55;;;;;;;5.70;5.00;;;7.70;99.90;;;;;;5005905;28;20200;-45
2023/02/05 09:18:24;;;;;;;5.67;4.87;;;7.70;99.90;;;;;;5015518;28;20626;-48
2023/02/05 09:20:53;;;;;;;5.28;4.78;;;7.70;99.90;;;;;;5005668;28;20499;-46
2023/02/05 09:23:22;;;;;;;8.83;5.30;;;7.70;99.90;;;;;;4999046;28;21864;-47
2023/02/05 09:25:52;;;;;;;7.47;4.38;;;7.70;99.90;;;;;;5005390;28;21039;-47
2023/02/05 09:28:21;;;;;;;5.25;4.60;;;7.60;99.90;;;;;;5018679;28;20306;-47
2023/02/05 09:30:50;;;;;;;3.90;3.50;;;7.70;99.90;;;;;;5006138;28;20227;-46
2023/02/05 09:33:18;;;;;;;6.30;4.38;;;7.60;99.90;;;;;;5003394;28;20628;-48
2023/02/05 09:35:47;;;;;;;5.00;3.25;;;7.70;99.90;;;;;;5006994;28;20739;-47
2023/02/05 09:38:17;;;;;;;5.30;3.45;;;7.60;99.90;;;;;;5018504;28;20248;-48
2023/02/05 09:40:55;;;;;;;5.78;3.97;;;7.70;99.90;;;;;;5006120;28;20231;-45
2023/02/05 09:43:38;;;;;;;5.68;4.15;;;7.70;99.90;;;;;;5003251;28;20195;-47
2023/02/05 09:46:12;;;;;;;8.95;4.22;;;7.70;99.90;;;;;;5005348;28;20293;-47
2023/02/05 09:48:49;;;;;;;4.38;3.10;;;7.70;99.90;;;;;;5015892;28;20570;-47
2023/02/05 09:51:21;;;;;;;5.68;3.22;;;7.70;99.90;;;;;;5005983;28;20266;-47
2023/02/05 09:53:56;;;;;;;5.93;3.60;;;7.60;99.90;;;;;;5016462;28;20245;-46
2023/02/05 09:56:27;;;;;;;4.18;3.40;;;7.70;99.90;;;;;;5003925;28;20247;-46
2023/02/05 09:58:58;;;;;;;6.45;3.30;;;7.60;99.90;;;;;;5014094;28;20205;-47
2023/02/05 10:01:39;;;;;;;5.45;2.95;;;7.70;99.90;;;;;;5021832;28;20221;-47
2023/02/05 10:04:08;;;;;;;4.03;2.75;;;7.70;99.90;;;;;;5004100;28;20204;-46
2023/02/05 10:07:13;;;;;;;4.20;3.38;;;7.70;99.90;;;;;;4999175;28;20210;-47
2023/02/05 10:10:09;;;;;;;3.92;2.90;;;7.60;99.90;;;;;;4998154;28;20196;-46
2023/02/05 10:13:13;;;;;;;7.30;3.20;;;7.70;99.90;;;;;;4990520;28;20227;-47
2023/02/05 10:15:55;;;;;;;3.88;2.50;;;7.70;99.90;;;;;;4980216;28;20308;-45
2023/02/05 10:18:32;;;;;;;2.92;2.38;;;7.60;99.90;;;;;;5011584;28;20257;-48
2023/02/05 10:21:09;;;;;;;3.78;2.63;;;7.70;99.90;;;;;;5011188;28;20222;-46
2023/02/05 10:24:02;;;;;;;4.80;2.75;;;7.70;99.90;;;;;;5016999;28;20193;-47
2023/02/05 10:26:36;;;;;;;4.55;2.78;;;7.70;99.90;;;;;;5012359;28;20999;-48
2023/02/05 10:29:22;;;;;;;3.95;2.92;;;7.70;99.90;;;;;;5005259;28;20230;-47
2023/02/05 10:32:15;;;;;;;5.28;2.45;;;7.60;99.90;;;;;;5017303;28;20251;-47
2023/02/05 10:34:52;;;;;;;3.83;2.53;;;7.60;99.90;;;;;;5021298;28;20205;-46
2023/02/05 10:37:35;;;;;;;3.90;2.55;;;7.60;99.90;;;;;;5005322;28;20574;-46
2023/02/05 10:40:12;;;;;;;3.85;2.38;;;7.60;99.90;;;;;;5005905;28;20200;-48
2023/02/05 10:42:45;;;;;;;3.22;2.63;;;7.60;99.90;;;;;;4997736;28;20714;-46
2023/02/05 10:45:18;;;;;;;3.35;2.88;;;7.60;99.90;;;;;;5003889;28;20206;-46
2023/02/05 10:47:56;;;;;;;2.75;2.10;;;7.60;99.90;;;;;;5005050;28;20243;-46
2023/02/05 10:50:30;;;;;;;2.38;2.10;;;7.60;99.90;;;;;;5004927;28;20216;-48
2023/02/05 10:52:59;;;;;;;3.60;2.00;;;7.60;99.90;;;;;;5000346;28;20217;-47
2023/02/05 10:55:28;;;;;;;4.60;2.10;;;7.60;99.90;;;;;;5007837;28;20772;-46
2023/02/05 10:57:57;;;;;;;5.63;2.22;;;7.60;99.90;;;;;;5017956;28;20230;-46
2023/02/05 11:00:27;;;;;;;5.55;2.33;;;7.60;99.90;;;;;;5009932;28;20579;-46
2023/02/05 11:02:58;;;;;;;3.47;2.15;;;7.60;99.90;;;;;;5008477;28;20235;-46
2023/02/05 11:05:34;;;;;;;2.72;2.20;;;7.60;99.90;;;;;;5010138;28;20820;-48
2023/02/05 11:08:26;;;;;;;2.80;2.50;;;7.60;99.90;;;;;;5011667;28;20226;-47
2023/02/05 11:10:55;;;;;;;3.23;2.13;;;7.60;99.90;;;;;;5006481;28;20478;-47
2023/02/05 11:13:26;;;;;;;2.95;1.80;;;7.60;99.90;;;;;;5010439;28;20459;-47
2023/02/05 11:15:58;;;;;;;3.35;1.83;;;7.60;99.90;;;;;;5030299;28;20263;-46
2023/02/05 11:18:29;;;;;;;1.80;1.65;;;7.60;99.90;;;;;;5014205;28;20203;-46
2023/02/05 11:21:00;;;;;;;3.83;2.58;;;7.60;99.90;;;;;;5016013;28;20219;-48
2023/02/05 11:23:31;;;;;;;2.85;1.45;;;7.60;99.90;;;;;;5011658;28;20197;-47
2023/02/05 11:26:09;;;;;;;7.13;2.58;;;7.60;99.90;;;;;;5027496;28;20223;-47
2023/02/05 11:28:39;;;;;;;3.47;2.15;;;7.60;99.90;;;;;;5020438;28;20196;-45
2023/02/05 11:31:25;;;;;;;3.45;1.55;;;7.60;99.90;;;;;;5027528;28;20756;-46
2023/02/05 11:34:10;;;;;;;3.65;1.65;;;7.60;99.90;;;;;;5000342;28;20200;-46
2023/02/05 11:36:47;;;;;;;3.75;1.83;;;7.60;99.90;;;;;;5018576;28;20253;-47
2023/02/05 11:39:29;;;;;;;2.03;1.50;;;7.60;99.90;;;;;;5016351;28;20330;-46
2023/02/05 11:42:08;;;;;;;5.95;1.70;;;7.60;99.90;;;;;;4993632;28;20694;-46
2023/02/05 11:44:46;;;;;;;2.88;2.03;;;7.60;99.90;;;;;;5005176;28;20296;-47
2023/02/05 11:47:24;;;;;;;3.80;2.20;;;7.60;99.90;;;;;;5020611;28;20227;-45
2023/02/05 11:49:53;;;;;;;6.38;1.70;;;7.60;99.90;;;;;;5007656;28;20200;-46
2023/02/05 11:52:27;;;;;;;2.47;1.70;;;7.60;99.90;;;;;;5006747;28;20228;-47
2023/02/05 11:55:00;;;;;;;5.07;1.90;;;7.60;99.90;;;;;;5005413;28;20334;-47
2023/02/05 11:57:37;;;;;;;2.40;1.63;;;7.60;99.90;;;;;;5002028;28;20322;-47
2023/02/05 12:00:20;;;;;;;3.58;1.70;;;7.60;99.90;;;;;;5007746;28;20201;-46
2023/02/05 12:02:52;;;;;;;3.95;1.92;;;7.60;99.90;;;;;;5005828;28;20231;-47
2023/02/05 12:05:24;;;;;;;4.03;1.60;;;7.60;99.90;;;;;;5007346;28;20224;-46
2023/02/05 12:07:58;;;;;;;5.22;1.60;;;7.60;99.90;;;;;;5015950;28;20228;-46
2023/02/05 12:10:36;;;;;;;2.38;1.60;;;7.60;99.90;;;;;;5003910;28;20225;-47
2023/02/05 12:13:15;;;;;;;4.05;1.60;;;7.60;99.90;;;;;;5004565;28;20648;-46
2023/02/05 12:15:53;;;;;;;4.25;1.75;;;7.60;99.90;;;;;;5006628;28;20629;-46
2023/02/05 12:18:33;;;;;;;4.05;1.70;;;7.60;99.90;;;;;;5005193;28;20246;-46
2023/02/05 12:21:13;;;;;;;3.40;1.58;;;7.60;99.90;;;;;;5024002;28;20230;-47
2023/02/05 12:24:13;;;;;;;2.58;1.50;;;7.60;99.90;;;;;;4992926;28;20201;-46
2023/02/05 12:26:44;;;;;;;5.90;1.67;;;7.60;99.90;;;;;;5002940;28;20231;-47
2023/02/05 12:29:29;;;;;;;3.10;2.10;;;7.60;99.90;;;;;;5006390;28;20211;-46
2023/02/05 12:32:07;;;;;;;4.93;1.58;;;7.60;99.90;;;;;;5005673;28;20223;-46
2023/02/05 12:34:53;;;;;;;6.22;2.05;;;7.60;99.90;;;;;;5017635;28;20196;-47
2023/02/05 12:37:33;;;;;;;4.60;1.63;;;7.60;99.90;;;;;;5013862;28;20220;-46
2023/02/05 12:40:13;;;;;;;6.63;2.10;;;7.60;99.90;;;;;;4993167;28;20205;-47
2023/02/05 12:42:50;;;;;;;6.35;2.00;;;7.60;99.90;;;;;;5015693;28;20259;-47
2023/02/05 12:45:39;;;;;;;2.15;1.50;;;7.60;99.90;;;;;;5003192;28;20188;-48
2023/02/05 12:48:22;;;;;;;3.33;1.98;;;7.60;99.90;;;;;;5006525;28;20336;-46
2023/02/05 12:51:00;;;;;;;3.00;1.80;;;7.60;99.90;;;;;;5001422;28;20243;-47
2023/02/05 12:53:41;;;;;;;3.63;1.88;;;7.60;99.90;;;;;;5007111;28;20196;-48
2023/02/05 12:56:22;;;;;;;7.78;1.98;;;7.60;99.90;;;;;;5002309;28;20233;-45
2023/02/05 12:58:55;;;;;;;6.55;2.20;;;7.60;99.90;;;;;;5001755;28;20192;-46
2023/02/05 13:01:37;;;;;;;4.82;1.55;;;7.60;99.90;;;;;;5020901;28;20230;-46
2023/02/05 13:04:12;;;;;;;2.92;1.63;;;7.60;99.90;;;;;;5005876;28;20205;-48
2023/02/05 13:06:46;;;;;;;3.70;1.40;;;7.60;99.90;;;;;;5004349;28;20238;-47
2023/02/05 13:09:22;;;;;;;4.00;1.58;;;7.60;99.90;;;;;;5008077;28;20273;-47
2023/02/05 13:11:58;;;;;;;5.68;1.45;;;7.60;99.90;;;;;;5004297;28;20244;-46
2023/02/05 13:14:30;;;;;;;4.88;2.05;;;7.60;99.90;;;;;;5021853;28;20315;-48
2023/02/05 13:17:04;;;;;;;7.95;2.13;;;7.60;99.90;;;;;;5001381;28;20227;-46
2023/02/05 13:19:39;;;;;;;3.78;1.75;;;7.60;99.90;;;;;;5006941;28;20642;-46
2023/02/05 13:28:41;;;;;;;6.93;1.90;;;7.60;99.90;;;;;;4995000;28;20223;-47
2023/02/05 13:31:24;;;;;;;3.85;1.45;;;7.60;99.90;;;;;;5001879;28;20577;-46
2023/02/05 13:33:56;;;;;;;2.78;1.40;;;7.60;99.90;;;;;;4995979;28;20678;-46
2023/02/05 13:36:53;;;;;;;6.18;1.60;;;7.60;99.90;;;;;;5000004;28;20279;-45